sensor_id;sensor_type;location;lat;lon;timestamp;P1;durP1;ratioP1;P2;durP2;ratioP2
48975;SDS011;34791;52.752;8.346;2022-07-06T00:01:22;9.30;;;3.30;;
48975;SDS011;34791;52.752;8.346;2022-07-06T00:03:48;8.53;;;3.73;;
48975;SDS011;34791;52.752;8.346;2022-07-06T00:06:13;6.73;;;3.20;;
48975;SDS011;34791;52.752;8.346;2022-07-06T00:08:39;8.63;;;3.30;;
48975;SDS011;34791;52.752;8.346;2022-07-06T00:11:04;7.17;;;3.60;;
48975;SDS011;34791;52.752;8.346;2022-07-06T00:13:29;10.23;;;3.90;;
48975;SDS011;34791;52.752;8.346;2022-07-06T00:15:55;9.40;;;3.80;;
48975;SDS011;34791;52.752;8.346;2022-07-06T00:18:20;10.30;;;3.77;;
48975;SDS011;34791;52.752;8.346;2022-07-06T00:20:45;9.20;;;3.93;;
48975;SDS011;34791;52.752;8.346;2022-07-06T00:23:10;7.40;;;3.70;;
48975;SDS011;34791;52.752;8.346;2022-07-06T00:25:36;8.73;;;3.90;;
48975;SDS011;34791;52.752;8.346;2022-07-06T00:28:01;8.80;;;4.37;;
48975;SDS011;34791;52.752;8.346;2022-07-06T00:30:26;8.17;;;4.00;;
48975;SDS011;34791;52.752;8.346;2022-07-06T00:32:51;11.23;;;4.30;;
48975;SDS011;34791;52.752;8.346;2022-07-06T00:35:17;11.03;;;4.33;;
48975;SDS011;34791;52.752;8.346;2022-07-06T00:37:42;8.43;;;3.73;;
48975;SDS011;34791;52.752;8.346;2022-07-06T00:40:07;13.50;;;5.20;;
48975;SDS011;34791;52.752;8.346;2022-07-06T00:42:39;12.27;;;4.37;;
48975;SDS011;34791;52.752;8.346;2022-07-06T00:45:05;8.73;;;4.50;;
48975;SDS011;34791;52.752;8.346;2022-07-06T00:47:30;10.50;;;4.23;;
48975;SDS011;34791;52.752;8.346;2022-07-06T00:49:55;9.00;;;4.23;;
48975;SDS011;34791;52.752;8.346;2022-07-06T00:52:39;9.47;;;4.47;;
48975;SDS011;34791;52.752;8.346;2022-07-06T00:55:05;10.40;;;4.57;;
48975;SDS011;34791;52.752;8.346;2022-07-06T00:57:30;13.77;;;4.47;;
48975;SDS011;34791;52.752;8.346;2022-07-06T00:59:55;11.17;;;4.73;;
48975;SDS011;34791;52.752;8.346;2022-07-06T01:02:21;8.67;;;4.07;;
48975;SDS011;34791;52.752;8.346;2022-07-06T01:04:47;12.60;;;4.93;;
48975;SDS011;34791;52.752;8.346;2022-07-06T01:07:12;13.00;;;4.73;;
48975;SDS011;34791;52.752;8.346;2022-07-06T01:09:38;10.00;;;4.70;;
48975;SDS011;34791;52.752;8.346;2022-07-06T01:12:03;8.23;;;4.70;;
48975;SDS011;34791;52.752;8.346;2022-07-06T01:14:29;10.60;;;5.03;;
48975;SDS011;34791;52.752;8.346;2022-07-06T01:16:54;12.90;;;5.10;;
48975;SDS011;34791;52.752;8.346;2022-07-06T01:19:19;11.67;;;5.10;;
48975;SDS011;34791;52.752;8.346;2022-07-06T01:21:45;11.60;;;4.60;;
48975;SDS011;34791;52.752;8.346;2022-07-06T01:24:10;11.77;;;4.73;;
48975;SDS011;34791;52.752;8.346;2022-07-06T01:26:35;10.93;;;4.27;;
48975;SDS011;34791;52.752;8.346;2022-07-06T01:29:01;12.17;;;4.87;;
48975;SDS011;34791;52.752;8.346;2022-07-06T01:31:26;9.23;;;4.23;;
48975;SDS011;34791;52.752;8.346;2022-07-06T01:33:53;10.67;;;4.30;;
48975;SDS011;34791;52.752;8.346;2022-07-06T01:36:19;8.83;;;4.13;;
48975;SDS011;34791;52.752;8.346;2022-07-06T01:38:48;9.93;;;4.57;;
48975;SDS011;34791;52.752;8.346;2022-07-06T01:41:14;7.93;;;3.73;;
48975;SDS011;34791;52.752;8.346;2022-07-06T01:43:39;10.20;;;4.10;;
48975;SDS011;34791;52.752;8.346;2022-07-06T01:46:04;9.70;;;3.73;;
48975;SDS011;34791;52.752;8.346;2022-07-06T01:48:30;8.20;;;3.63;;
48975;SDS011;34791;52.752;8.346;2022-07-06T01:50:55;11.00;;;3.93;;
48975;SDS011;34791;52.752;8.346;2022-07-06T01:53:20;8.10;;;4.00;;
48975;SDS011;34791;52.752;8.346;2022-07-06T01:55:45;9.67;;;3.50;;
48975;SDS011;34791;52.752;8.346;2022-07-06T01:58:10;6.07;;;3.40;;
48975;SDS011;34791;52.752;8.346;2022-07-06T02:00:36;7.17;;;3.70;;
48975;SDS011;34791;52.752;8.346;2022-07-06T02:03:01;8.30;;;3.27;;
48975;SDS011;34791;52.752;8.346;2022-07-06T02:05:26;10.77;;;3.50;;
48975;SDS011;34791;52.752;8.346;2022-07-06T02:07:51;8.70;;;3.53;;
48975;SDS011;34791;52.752;8.346;2022-07-06T02:10:17;10.47;;;3.73;;
48975;SDS011;34791;52.752;8.346;2022-07-06T02:12:42;13.13;;;3.43;;
48975;SDS011;34791;52.752;8.346;2022-07-06T02:15:07;8.47;;;4.00;;
48975;SDS011;34791;52.752;8.346;2022-07-06T02:17:33;13.33;;;4.67;;
48975;SDS011;34791;52.752;8.346;2022-07-06T02:19:58;9.37;;;4.70;;
48975;SDS011;34791;52.752;8.346;2022-07-06T02:22:23;9.83;;;4.43;;
48975;SDS011;34791;52.752;8.346;2022-07-06T02:24:48;10.80;;;4.10;;
48975;SDS011;34791;52.752;8.346;2022-07-06T02:27:14;13.27;;;4.10;;
48975;SDS011;34791;52.752;8.346;2022-07-06T02:29:39;9.77;;;3.90;;
48975;SDS011;34791;52.752;8.346;2022-07-06T02:32:04;10.73;;;4.20;;
48975;SDS011;34791;52.752;8.346;2022-07-06T02:34:29;9.83;;;4.57;;
48975;SDS011;34791;52.752;8.346;2022-07-06T02:36:55;12.03;;;4.13;;
48975;SDS011;34791;52.752;8.346;2022-07-06T02:39:20;9.47;;;4.47;;
48975;SDS011;34791;52.752;8.346;2022-07-06T02:41:45;11.97;;;4.37;;
48975;SDS011;34791;52.752;8.346;2022-07-06T02:44:10;10.67;;;4.50;;
48975;SDS011;34791;52.752;8.346;2022-07-06T02:46:35;9.97;;;4.90;;
48975;SDS011;34791;52.752;8.346;2022-07-06T02:49:01;12.60;;;4.90;;
48975;SDS011;34791;52.752;8.346;2022-07-06T02:51:26;11.63;;;4.70;;
48975;SDS011;34791;52.752;8.346;2022-07-06T02:53:51;10.10;;;4.23;;
48975;SDS011;34791;52.752;8.346;2022-07-06T02:56:16;11.53;;;4.30;;
48975;SDS011;34791;52.752;8.346;2022-07-06T02:58:42;12.23;;;4.30;;
48975;SDS011;34791;52.752;8.346;2022-07-06T03:01:07;11.60;;;3.97;;
48975;SDS011;34791;52.752;8.346;2022-07-06T03:03:33;7.03;;;3.43;;
48975;SDS011;34791;52.752;8.346;2022-07-06T03:05:58;9.17;;;3.67;;
48975;SDS011;34791;52.752;8.346;2022-07-06T03:08:23;8.07;;;3.37;;
48975;SDS011;34791;52.752;8.346;2022-07-06T03:10:48;7.90;;;3.63;;
48975;SDS011;34791;52.752;8.346;2022-07-06T03:13:14;9.57;;;3.70;;
48975;SDS011;34791;52.752;8.346;2022-07-06T03:15:39;9.47;;;3.53;;
48975;SDS011;34791;52.752;8.346;2022-07-06T03:18:04;9.07;;;3.30;;
48975;SDS011;34791;52.752;8.346;2022-07-06T03:20:29;7.90;;;3.60;;
48975;SDS011;34791;52.752;8.346;2022-07-06T03:22:55;7.63;;;3.67;;
48975;SDS011;34791;52.752;8.346;2022-07-06T03:25:20;10.30;;;4.00;;
48975;SDS011;34791;52.752;8.346;2022-07-06T03:27:45;12.27;;;4.10;;
48975;SDS011;34791;52.752;8.346;2022-07-06T03:30:10;12.47;;;3.90;;
48975;SDS011;34791;52.752;8.346;2022-07-06T03:32:36;12.37;;;4.00;;
48975;SDS011;34791;52.752;8.346;2022-07-06T03:35:01;6.63;;;3.63;;
48975;SDS011;34791;52.752;8.346;2022-07-06T03:37:26;9.00;;;3.90;;
48975;SDS011;34791;52.752;8.346;2022-07-06T03:39:51;11.70;;;3.67;;
48975;SDS011;34791;52.752;8.346;2022-07-06T03:42:17;9.37;;;3.67;;
48975;SDS011;34791;52.752;8.346;2022-07-06T03:44:42;7.50;;;3.60;;
48975;SDS011;34791;52.752;8.346;2022-07-06T03:47:07;7.60;;;3.93;;
48975;SDS011;34791;52.752;8.346;2022-07-06T03:49:32;10.33;;;4.47;;
48975;SDS011;34791;52.752;8.346;2022-07-06T03:51:57;6.30;;;3.00;;
48975;SDS011;34791;52.752;8.346;2022-07-06T03:54:23;9.20;;;3.57;;
48975;SDS011;34791;52.752;8.346;2022-07-06T03:56:48;9.17;;;3.10;;
48975;SDS011;34791;52.752;8.346;2022-07-06T03:59:13;8.03;;;3.50;;
48975;SDS011;34791;52.752;8.346;2022-07-06T04:01:39;10.40;;;3.70;;
48975;SDS011;34791;52.752;8.346;2022-07-06T04:04:04;8.77;;;3.07;;
48975;SDS011;34791;52.752;8.346;2022-07-06T04:06:29;10.20;;;3.43;;
48975;SDS011;34791;52.752;8.346;2022-07-06T04:08:55;9.73;;;3.20;;
48975;SDS011;34791;52.752;8.346;2022-07-06T04:11:20;8.40;;;3.13;;
48975;SDS011;34791;52.752;8.346;2022-07-06T04:13:45;6.07;;;3.00;;
48975;SDS011;34791;52.752;8.346;2022-07-06T04:16:11;11.90;;;3.07;;
48975;SDS011;34791;52.752;8.346;2022-07-06T04:18:36;7.07;;;2.83;;
48975;SDS011;34791;52.752;8.346;2022-07-06T04:21:01;8.17;;;3.33;;
48975;SDS011;34791;52.752;8.346;2022-07-06T04:23:27;9.43;;;3.07;;
48975;SDS011;34791;52.752;8.346;2022-07-06T04:25:53;9.27;;;3.50;;
48975;SDS011;34791;52.752;8.346;2022-07-06T04:28:18;7.67;;;3.37;;
48975;SDS011;34791;52.752;8.346;2022-07-06T04:30:44;7.97;;;3.10;;
48975;SDS011;34791;52.752;8.346;2022-07-06T04:33:09;9.03;;;3.20;;
48975;SDS011;34791;52.752;8.346;2022-07-06T04:35:34;6.73;;;3.00;;
48975;SDS011;34791;52.752;8.346;2022-07-06T04:38:00;11.70;;;3.20;;
48975;SDS011;34791;52.752;8.346;2022-07-06T04:40:25;8.23;;;3.13;;
48975;SDS011;34791;52.752;8.346;2022-07-06T04:42:50;11.60;;;3.10;;
48975;SDS011;34791;52.752;8.346;2022-07-06T04:45:15;9.27;;;3.10;;
48975;SDS011;34791;52.752;8.346;2022-07-06T04:47:41;6.93;;;2.97;;
48975;SDS011;34791;52.752;8.346;2022-07-06T04:50:06;6.93;;;2.83;;
48975;SDS011;34791;52.752;8.346;2022-07-06T04:52:31;7.93;;;3.20;;
48975;SDS011;34791;52.752;8.346;2022-07-06T04:54:57;6.07;;;3.20;;
48975;SDS011;34791;52.752;8.346;2022-07-06T04:57:22;7.80;;;3.03;;
48975;SDS011;34791;52.752;8.346;2022-07-06T04:59:47;9.70;;;3.03;;
48975;SDS011;34791;52.752;8.346;2022-07-06T05:02:12;10.57;;;2.80;;
48975;SDS011;34791;52.752;8.346;2022-07-06T05:04:38;6.57;;;2.80;;
48975;SDS011;34791;52.752;8.346;2022-07-06T05:07:03;8.37;;;2.80;;
48975;SDS011;34791;52.752;8.346;2022-07-06T05:09:28;11.43;;;2.90;;
48975;SDS011;34791;52.752;8.346;2022-07-06T05:11:54;8.50;;;2.83;;
48975;SDS011;34791;52.752;8.346;2022-07-06T05:14:19;4.53;;;2.50;;
48975;SDS011;34791;52.752;8.346;2022-07-06T05:16:44;7.37;;;2.90;;
48975;SDS011;34791;52.752;8.346;2022-07-06T05:19:10;7.97;;;2.60;;
48975;SDS011;34791;52.752;8.346;2022-07-06T05:21:35;7.70;;;2.60;;
48975;SDS011;34791;52.752;8.346;2022-07-06T05:24:00;7.80;;;2.70;;
48975;SDS011;34791;52.752;8.346;2022-07-06T05:26:25;13.43;;;3.17;;
48975;SDS011;34791;52.752;8.346;2022-07-06T05:28:51;6.68;;;2.40;;
48975;SDS011;34791;52.752;8.346;2022-07-06T05:31:16;5.63;;;2.47;;
48975;SDS011;34791;52.752;8.346;2022-07-06T05:33:41;5.97;;;2.30;;
48975;SDS011;34791;52.752;8.346;2022-07-06T05:36:07;4.88;;;2.33;;
48975;SDS011;34791;52.752;8.346;2022-07-06T05:38:32;7.70;;;3.17;;
48975;SDS011;34791;52.752;8.346;2022-07-06T05:40:57;9.40;;;2.95;;
48975;SDS011;34791;52.752;8.346;2022-07-06T05:43:23;10.73;;;3.00;;
48975;SDS011;34791;52.752;8.346;2022-07-06T05:45:48;8.48;;;2.33;;
48975;SDS011;34791;52.752;8.346;2022-07-06T05:48:13;7.25;;;2.60;;
48975;SDS011;34791;52.752;8.346;2022-07-06T05:50:57;8.57;;;2.90;;
48975;SDS011;34791;52.752;8.346;2022-07-06T05:53:22;8.40;;;2.60;;
48975;SDS011;34791;52.752;8.346;2022-07-06T05:55:47;6.53;;;2.53;;
48975;SDS011;34791;52.752;8.346;2022-07-06T05:58:13;6.22;;;2.47;;
48975;SDS011;34791;52.752;8.346;2022-07-06T06:00:38;8.27;;;2.72;;
48975;SDS011;34791;52.752;8.346;2022-07-06T06:03:03;9.45;;;2.60;;
48975;SDS011;34791;52.752;8.346;2022-07-06T06:05:29;7.38;;;2.60;;
48975;SDS011;34791;52.752;8.346;2022-07-06T06:07:54;10.10;;;2.60;;
48975;SDS011;34791;52.752;8.346;2022-07-06T06:10:19;8.18;;;2.70;;
48975;SDS011;34791;52.752;8.346;2022-07-06T06:12:46;7.18;;;2.60;;
48975;SDS011;34791;52.752;8.346;2022-07-06T06:15:12;7.13;;;2.40;;
48975;SDS011;34791;52.752;8.346;2022-07-06T06:17:37;9.02;;;2.10;;
48975;SDS011;34791;52.752;8.346;2022-07-06T06:20:06;6.00;;;1.60;;
48975;SDS011;34791;52.752;8.346;2022-07-06T06:22:54;5.72;;;2.17;;
48975;SDS011;34791;52.752;8.346;2022-07-06T06:25:19;8.20;;;2.00;;
48975;SDS011;34791;52.752;8.346;2022-07-06T06:27:45;4.60;;;1.73;;
48975;SDS011;34791;52.752;8.346;2022-07-06T06:30:10;5.63;;;1.92;;
48975;SDS011;34791;52.752;8.346;2022-07-06T06:32:36;6.03;;;2.00;;
48975;SDS011;34791;52.752;8.346;2022-07-06T06:35:02;9.02;;;1.85;;
48975;SDS011;34791;52.752;8.346;2022-07-06T06:37:27;7.65;;;1.80;;
48975;SDS011;34791;52.752;8.346;2022-07-06T06:39:52;7.28;;;2.00;;
48975;SDS011;34791;52.752;8.346;2022-07-06T06:42:17;5.78;;;1.67;;
48975;SDS011;34791;52.752;8.346;2022-07-06T06:44:42;5.68;;;1.63;;
48975;SDS011;34791;52.752;8.346;2022-07-06T06:47:08;5.72;;;1.70;;
48975;SDS011;34791;52.752;8.346;2022-07-06T06:49:33;8.10;;;1.65;;
48975;SDS011;34791;52.752;8.346;2022-07-06T06:51:58;7.05;;;2.08;;
48975;SDS011;34791;52.752;8.346;2022-07-06T06:54:23;7.47;;;1.95;;
48975;SDS011;34791;52.752;8.346;2022-07-06T06:56:48;3.47;;;1.40;;
48975;SDS011;34791;52.752;8.346;2022-07-06T06:59:14;7.35;;;1.50;;
48975;SDS011;34791;52.752;8.346;2022-07-06T07:01:40;9.15;;;1.58;;
48975;SDS011;34791;52.752;8.346;2022-07-06T07:04:05;5.63;;;1.40;;
48975;SDS011;34791;52.752;8.346;2022-07-06T07:06:31;5.55;;;1.17;;
48975;SDS011;34791;52.752;8.346;2022-07-06T07:08:56;6.60;;;1.17;;
48975;SDS011;34791;52.752;8.346;2022-07-06T07:11:21;6.00;;;1.30;;
48975;SDS011;34791;52.752;8.346;2022-07-06T07:13:47;5.93;;;1.30;;
48975;SDS011;34791;52.752;8.346;2022-07-06T07:16:12;7.63;;;1.20;;
48975;SDS011;34791;52.752;8.346;2022-07-06T07:18:37;7.28;;;1.00;;
48975;SDS011;34791;52.752;8.346;2022-07-06T07:21:02;5.03;;;1.25;;
48975;SDS011;34791;52.752;8.346;2022-07-06T07:23:28;4.53;;;1.02;;
48975;SDS011;34791;52.752;8.346;2022-07-06T07:25:53;6.72;;;1.20;;
48975;SDS011;34791;52.752;8.346;2022-07-06T07:28:18;3.75;;;0.90;;
48975;SDS011;34791;52.752;8.346;2022-07-06T07:30:43;5.45;;;1.05;;
48975;SDS011;34791;52.752;8.346;2022-07-06T07:33:09;7.70;;;1.00;;
48975;SDS011;34791;52.752;8.346;2022-07-06T07:35:34;4.80;;;1.00;;
48975;SDS011;34791;52.752;8.346;2022-07-06T07:37:59;4.45;;;1.02;;
48975;SDS011;34791;52.752;8.346;2022-07-06T07:40:24;6.00;;;1.08;;
48975;SDS011;34791;52.752;8.346;2022-07-06T07:42:50;3.97;;;0.70;;
48975;SDS011;34791;52.752;8.346;2022-07-06T07:45:15;2.97;;;0.73;;
48975;SDS011;34791;52.752;8.346;2022-07-06T07:47:41;5.07;;;0.88;;
48975;SDS011;34791;52.752;8.346;2022-07-06T07:50:06;2.97;;;0.63;;
48975;SDS011;34791;52.752;8.346;2022-07-06T07:52:32;5.22;;;0.70;;
48975;SDS011;34791;52.752;8.346;2022-07-06T07:54:58;3.05;;;0.60;;
48975;SDS011;34791;52.752;8.346;2022-07-06T07:57:23;1.83;;;0.47;;
48975;SDS011;34791;52.752;8.346;2022-07-06T07:59:48;4.95;;;0.70;;
48975;SDS011;34791;52.752;8.346;2022-07-06T08:02:14;4.15;;;0.70;;
48975;SDS011;34791;52.752;8.346;2022-07-06T08:04:39;5.90;;;0.80;;
48975;SDS011;34791;52.752;8.346;2022-07-06T08:07:04;4.95;;;0.70;;
48975;SDS011;34791;52.752;8.346;2022-07-06T08:09:29;4.00;;;0.70;;
48975;SDS011;34791;52.752;8.346;2022-07-06T08:11:55;4.07;;;0.70;;
48975;SDS011;34791;52.752;8.346;2022-07-06T08:14:20;5.10;;;0.60;;
48975;SDS011;34791;52.752;8.346;2022-07-06T08:16:46;4.72;;;0.60;;
48975;SDS011;34791;52.752;8.346;2022-07-06T08:19:11;6.38;;;0.68;;
48975;SDS011;34791;52.752;8.346;2022-07-06T08:21:40;2.67;;;0.50;;
48975;SDS011;34791;52.752;8.346;2022-07-06T08:24:05;4.53;;;0.82;;
48975;SDS011;34791;52.752;8.346;2022-07-06T08:26:30;4.75;;;0.60;;
48975;SDS011;34791;52.752;8.346;2022-07-06T08:28:56;2.70;;;0.60;;
48975;SDS011;34791;52.752;8.346;2022-07-06T08:31:21;6.32;;;0.70;;
48975;SDS011;34791;52.752;8.346;2022-07-06T08:33:46;5.28;;;0.63;;
48975;SDS011;34791;52.752;8.346;2022-07-06T08:36:13;2.72;;;0.60;;
48975;SDS011;34791;52.752;8.346;2022-07-06T08:38:38;4.55;;;0.68;;
48975;SDS011;34791;52.752;8.346;2022-07-06T08:41:03;4.82;;;0.60;;
48975;SDS011;34791;52.752;8.346;2022-07-06T08:43:31;2.72;;;0.60;;
48975;SDS011;34791;52.752;8.346;2022-07-06T08:45:56;3.42;;;0.68;;
48975;SDS011;34791;52.752;8.346;2022-07-06T08:48:22;2.50;;;0.60;;
48975;SDS011;34791;52.752;8.346;2022-07-06T08:50:48;3.50;;;0.70;;
48975;SDS011;34791;52.752;8.346;2022-07-06T08:53:14;3.97;;;0.43;;
48975;SDS011;34791;52.752;8.346;2022-07-06T08:55:41;2.47;;;0.60;;
48975;SDS011;34791;52.752;8.346;2022-07-06T08:58:06;3.65;;;0.70;;
48975;SDS011;34791;52.752;8.346;2022-07-06T09:00:32;4.18;;;0.68;;
48975;SDS011;34791;52.752;8.346;2022-07-06T09:02:58;4.38;;;0.80;;
48975;SDS011;34791;52.752;8.346;2022-07-06T09:05:24;3.50;;;0.60;;
48975;SDS011;34791;52.752;8.346;2022-07-06T09:07:50;9.05;;;2.70;;
48975;SDS011;34791;52.752;8.346;2022-07-06T09:10:19;8.85;;;2.33;;
48975;SDS011;34791;52.752;8.346;2022-07-06T09:12:45;7.30;;;2.35;;
48975;SDS011;34791;52.752;8.346;2022-07-06T09:15:10;6.32;;;1.50;;
48975;SDS011;34791;52.752;8.346;2022-07-06T09:17:39;5.15;;;0.80;;
48975;SDS011;34791;52.752;8.346;2022-07-06T09:20:08;3.40;;;0.95;;
48975;SDS011;34791;52.752;8.346;2022-07-06T09:22:34;4.38;;;0.50;;
48975;SDS011;34791;52.752;8.346;2022-07-06T09:25:10;3.97;;;0.70;;
48975;SDS011;34791;52.752;8.346;2022-07-06T09:27:39;4.05;;;0.55;;
48975;SDS011;34791;52.752;8.346;2022-07-06T09:30:06;2.58;;;0.50;;
48975;SDS011;34791;52.752;8.346;2022-07-06T09:32:32;3.80;;;0.73;;
48975;SDS011;34791;52.752;8.346;2022-07-06T09:35:02;2.53;;;0.40;;
48975;SDS011;34791;52.752;8.346;2022-07-06T09:37:28;3.95;;;0.60;;
48975;SDS011;34791;52.752;8.346;2022-07-06T09:39:54;1.75;;;0.40;;
48975;SDS011;34791;52.752;8.346;2022-07-06T09:42:23;5.25;;;0.82;;
48975;SDS011;34791;52.752;8.346;2022-07-06T09:44:48;3.95;;;0.60;;
48975;SDS011;34791;52.752;8.346;2022-07-06T09:47:14;2.92;;;0.43;;
48975;SDS011;34791;52.752;8.346;2022-07-06T09:49:39;4.55;;;0.55;;
48975;SDS011;34791;52.752;8.346;2022-07-06T09:52:06;3.05;;;0.50;;
48975;SDS011;34791;52.752;8.346;2022-07-06T09:54:32;3.83;;;0.50;;
48975;SDS011;34791;52.752;8.346;2022-07-06T09:56:58;2.63;;;0.50;;
48975;SDS011;34791;52.752;8.346;2022-07-06T09:59:24;3.35;;;0.57;;
48975;SDS011;34791;52.752;8.346;2022-07-06T10:01:51;5.40;;;0.70;;
48975;SDS011;34791;52.752;8.346;2022-07-06T10:04:17;5.07;;;0.70;;
48975;SDS011;34791;52.752;8.346;2022-07-06T10:06:43;3.92;;;0.60;;
48975;SDS011;34791;52.752;8.346;2022-07-06T10:09:10;3.83;;;0.55;;
48975;SDS011;34791;52.752;8.346;2022-07-06T10:11:39;3.30;;;0.95;;
48975;SDS011;34791;52.752;8.346;2022-07-06T10:14:05;2.72;;;0.50;;
48975;SDS011;34791;52.752;8.346;2022-07-06T10:16:31;3.58;;;0.70;;
48975;SDS011;34791;52.752;8.346;2022-07-06T10:18:56;5.53;;;0.82;;
48975;SDS011;34791;52.752;8.346;2022-07-06T10:21:22;3.78;;;0.70;;
48975;SDS011;34791;52.752;8.346;2022-07-06T10:23:48;4.05;;;1.05;;
48975;SDS011;34791;52.752;8.346;2022-07-06T10:26:14;4.30;;;0.60;;
48975;SDS011;34791;52.752;8.346;2022-07-06T10:28:39;4.80;;;1.38;;
48975;SDS011;34791;52.752;8.346;2022-07-06T10:31:04;3.17;;;0.55;;
48975;SDS011;34791;52.752;8.346;2022-07-06T10:33:30;1.80;;;0.50;;
48975;SDS011;34791;52.752;8.346;2022-07-06T10:35:56;5.13;;;0.60;;
48975;SDS011;34791;52.752;8.346;2022-07-06T10:38:22;3.53;;;0.32;;
48975;SDS011;34791;52.752;8.346;2022-07-06T10:40:58;2.58;;;0.50;;
48975;SDS011;34791;52.752;8.346;2022-07-06T10:43:37;5.20;;;0.65;;
48975;SDS011;34791;52.752;8.346;2022-07-06T10:46:09;3.95;;;0.63;;
48975;SDS011;34791;52.752;8.346;2022-07-06T10:48:39;2.65;;;0.57;;
48975;SDS011;34791;52.752;8.346;2022-07-06T10:51:05;4.35;;;0.60;;
48975;SDS011;34791;52.752;8.346;2022-07-06T10:53:34;2.05;;;0.50;;
48975;SDS011;34791;52.752;8.346;2022-07-06T10:56:00;4.15;;;0.60;;
48975;SDS011;34791;52.752;8.346;2022-07-06T11:01:10;1.98;;;0.40;;
48975;SDS011;34791;52.752;8.346;2022-07-06T11:06:03;4.45;;;0.60;;
48975;SDS011;34791;52.752;8.346;2022-07-06T11:11:10;2.72;;;0.65;;
48975;SDS011;34791;52.752;8.346;2022-07-06T11:13:41;2.90;;;0.45;;
48975;SDS011;34791;52.752;8.346;2022-07-06T11:16:07;4.10;;;0.57;;
48975;SDS011;34791;52.752;8.346;2022-07-06T11:18:39;2.33;;;0.38;;
48975;SDS011;34791;52.752;8.346;2022-07-06T11:21:23;2.60;;;0.43;;
48975;SDS011;34791;52.752;8.346;2022-07-06T11:23:53;2.42;;;0.40;;
48975;SDS011;34791;52.752;8.346;2022-07-06T11:26:19;3.80;;;0.57;;
48975;SDS011;34791;52.752;8.346;2022-07-06T11:28:46;3.60;;;0.70;;
48975;SDS011;34791;52.752;8.346;2022-07-06T11:31:12;3.33;;;0.47;;
48975;SDS011;34791;52.752;8.346;2022-07-06T11:33:38;3.88;;;0.60;;
48975;SDS011;34791;52.752;8.346;2022-07-06T11:36:20;2.97;;;0.50;;
48975;SDS011;34791;52.752;8.346;2022-07-06T11:38:46;1.95;;;0.40;;
48975;SDS011;34791;52.752;8.346;2022-07-06T11:41:11;2.45;;;0.40;;
48975;SDS011;34791;52.752;8.346;2022-07-06T11:43:39;3.53;;;0.47;;
48975;SDS011;34791;52.752;8.346;2022-07-06T11:46:16;1.65;;;0.40;;
48975;SDS011;34791;52.752;8.346;2022-07-06T11:48:45;3.65;;;0.43;;
48975;SDS011;34791;52.752;8.346;2022-07-06T11:51:10;3.72;;;0.52;;
48975;SDS011;34791;52.752;8.346;2022-07-06T11:53:36;2.15;;;0.45;;
48975;SDS011;34791;52.752;8.346;2022-07-06T11:56:02;3.85;;;0.50;;
48975;SDS011;34791;52.752;8.346;2022-07-06T11:58:27;3.90;;;0.40;;
48975;SDS011;34791;52.752;8.346;2022-07-06T12:01:04;3.80;;;0.63;;
48975;SDS011;34791;52.752;8.346;2022-07-06T12:03:30;3.55;;;0.47;;
48975;SDS011;34791;52.752;8.346;2022-07-06T12:05:57;2.85;;;0.50;;
48975;SDS011;34791;52.752;8.346;2022-07-06T12:08:22;2.60;;;0.40;;
48975;SDS011;34791;52.752;8.346;2022-07-06T12:10:48;2.33;;;0.40;;
48975;SDS011;34791;52.752;8.346;2022-07-06T12:13:13;6.47;;;0.60;;
48975;SDS011;34791;52.752;8.346;2022-07-06T12:15:38;2.88;;;0.50;;
48975;SDS011;34791;52.752;8.346;2022-07-06T12:18:03;5.82;;;0.75;;
48975;SDS011;34791;52.752;8.346;2022-07-06T12:20:29;2.53;;;0.43;;
48975;SDS011;34791;52.752;8.346;2022-07-06T12:23:01;1.75;;;0.50;;
48975;SDS011;34791;52.752;8.346;2022-07-06T12:25:30;3.85;;;0.70;;
48975;SDS011;34791;52.752;8.346;2022-07-06T12:27:55;2.42;;;0.68;;
48975;SDS011;34791;52.752;8.346;2022-07-06T12:30:20;2.58;;;0.40;;
48975;SDS011;34791;52.752;8.346;2022-07-06T12:32:46;3.42;;;0.80;;
48975;SDS011;34791;52.752;8.346;2022-07-06T12:35:11;3.65;;;0.70;;
48975;SDS011;34791;52.752;8.346;2022-07-06T12:37:36;4.57;;;0.70;;
48975;SDS011;34791;52.752;8.346;2022-07-06T12:40:02;5.43;;;0.60;;
48975;SDS011;34791;52.752;8.346;2022-07-06T12:42:36;4.03;;;0.68;;
48975;SDS011;34791;52.752;8.346;2022-07-06T12:45:10;4.70;;;0.43;;
48975;SDS011;34791;52.752;8.346;2022-07-06T12:47:35;3.17;;;0.60;;
48975;SDS011;34791;52.752;8.346;2022-07-06T12:52:30;2.90;;;0.60;;
48975;SDS011;34791;52.752;8.346;2022-07-06T12:54:55;4.15;;;1.10;;
48975;SDS011;34791;52.752;8.346;2022-07-06T12:57:24;4.60;;;0.60;;
48975;SDS011;34791;52.752;8.346;2022-07-06T13:02:31;3.88;;;1.08;;
48975;SDS011;34791;52.752;8.346;2022-07-06T13:04:58;4.88;;;1.33;;
48975;SDS011;34791;52.752;8.346;2022-07-06T13:07:24;5.15;;;0.77;;
48975;SDS011;34791;52.752;8.346;2022-07-06T13:09:50;2.08;;;0.40;;
48975;SDS011;34791;52.752;8.346;2022-07-06T13:12:15;3.92;;;0.60;;
48975;SDS011;34791;52.752;8.346;2022-07-06T13:14:40;2.28;;;0.50;;
48975;SDS011;34791;52.752;8.346;2022-07-06T13:17:06;2.67;;;0.40;;
48975;SDS011;34791;52.752;8.346;2022-07-06T13:19:32;4.00;;;0.95;;
48975;SDS011;34791;52.752;8.346;2022-07-06T13:21:57;4.07;;;0.45;;
48975;SDS011;34791;52.752;8.346;2022-07-06T13:24:22;3.40;;;0.50;;
48975;SDS011;34791;52.752;8.346;2022-07-06T13:26:48;3.80;;;0.43;;
48975;SDS011;34791;52.752;8.346;2022-07-06T13:29:13;2.75;;;0.43;;
48975;SDS011;34791;52.752;8.346;2022-07-06T13:31:38;3.40;;;0.40;;
48975;SDS011;34791;52.752;8.346;2022-07-06T13:34:04;5.47;;;0.90;;
48975;SDS011;34791;52.752;8.346;2022-07-06T13:36:30;3.47;;;0.45;;
48975;SDS011;34791;52.752;8.346;2022-07-06T13:38:55;2.50;;;0.50;;
48975;SDS011;34791;52.752;8.346;2022-07-06T13:41:20;2.95;;;0.65;;
48975;SDS011;34791;52.752;8.346;2022-07-06T13:43:46;3.53;;;0.50;;
48975;SDS011;34791;52.752;8.346;2022-07-06T13:46:11;3.08;;;0.50;;
48975;SDS011;34791;52.752;8.346;2022-07-06T13:48:37;1.45;;;0.32;;
48975;SDS011;34791;52.752;8.346;2022-07-06T13:51:02;2.58;;;0.50;;
48975;SDS011;34791;52.752;8.346;2022-07-06T13:53:27;1.90;;;0.35;;
48975;SDS011;34791;52.752;8.346;2022-07-06T13:55:52;3.47;;;0.30;;
48975;SDS011;34791;52.752;8.346;2022-07-06T13:58:18;3.80;;;0.75;;
48975;SDS011;34791;52.752;8.346;2022-07-06T14:00:44;3.90;;;0.60;;
48975;SDS011;34791;52.752;8.346;2022-07-06T14:03:09;2.75;;;0.60;;
48975;SDS011;34791;52.752;8.346;2022-07-06T14:05:34;3.97;;;0.63;;
48975;SDS011;34791;52.752;8.346;2022-07-06T14:08:00;2.70;;;0.50;;
48975;SDS011;34791;52.752;8.346;2022-07-06T14:10:25;4.05;;;0.50;;
48975;SDS011;34791;52.752;8.346;2022-07-06T14:12:51;3.38;;;0.70;;
48975;SDS011;34791;52.752;8.346;2022-07-06T14:15:16;1.83;;;0.50;;
48975;SDS011;34791;52.752;8.346;2022-07-06T14:17:41;4.15;;;0.65;;
48975;SDS011;34791;52.752;8.346;2022-07-06T14:20:06;4.50;;;0.52;;
48975;SDS011;34791;52.752;8.346;2022-07-06T14:22:32;3.70;;;0.57;;
48975;SDS011;34791;52.752;8.346;2022-07-06T14:24:57;2.38;;;0.50;;
48975;SDS011;34791;52.752;8.346;2022-07-06T14:27:22;1.80;;;0.40;;
48975;SDS011;34791;52.752;8.346;2022-07-06T14:29:48;3.50;;;0.60;;
48975;SDS011;34791;52.752;8.346;2022-07-06T14:32:14;3.50;;;0.65;;
48975;SDS011;34791;52.752;8.346;2022-07-06T14:34:39;1.60;;;0.43;;
48975;SDS011;34791;52.752;8.346;2022-07-06T14:37:04;4.32;;;0.60;;
48975;SDS011;34791;52.752;8.346;2022-07-06T14:39:30;2.60;;;0.60;;
48975;SDS011;34791;52.752;8.346;2022-07-06T14:41:55;4.85;;;0.50;;
48975;SDS011;34791;52.752;8.346;2022-07-06T14:44:20;5.47;;;0.80;;
48975;SDS011;34791;52.752;8.346;2022-07-06T14:46:45;2.70;;;0.60;;
48975;SDS011;34791;52.752;8.346;2022-07-06T14:49:11;4.15;;;0.63;;
48975;SDS011;34791;52.752;8.346;2022-07-06T14:51:36;2.72;;;0.98;;